Romeroville, New Mexico
Current Conditions -  °F | °C
As of 8:53 AM on Saturday 25 Oct 2014 (Local Time) from KLVS Reporting Station
Clear Clear  
Wind Chill: 56°   Ceiling: Unl
Heat Index: 56°   Visibility: 10mi
Dew Point: 23°   Wind: 7mph
Humidity: 28%   Direction: 20°NNE
Pressure: 30.33"   Gusts: NA
Location:  35.5292°N, 104.927°W
Report Text: KLVS 251453Z AUTO 02006KT 10SM CLR 13/M05 A3033 RMK AO2 SLP196 T01331050 53007
Loading
Personal Weather Stations






























Interactive Weather Map
Tropical Storm Tracking
New forecast layout! Learn more

10-Day Weather Forecast

Advertisements
Track Severe Weather on mobile